sensor_id;sensor_type;location;lat;lon;timestamp;temperature;humidity
56538;DHT22;42435;53.292;6.000;2023-11-21T00:01:28;11.50;87.40
56538;DHT22;42435;53.292;6.000;2023-11-21T00:03:53;11.50;87.40
56538;DHT22;42435;53.292;6.000;2023-11-21T00:06:20;11.50;87.50
56538;DHT22;42435;53.292;6.000;2023-11-21T00:08:46;11.50;87.50
56538;DHT22;42435;53.292;6.000;2023-11-21T00:11:12;11.50;87.50
56538;DHT22;42435;53.292;6.000;2023-11-21T00:13:37;11.60;87.50
56538;DHT22;42435;53.292;6.000;2023-11-21T00:16:03;11.60;87.50
56538;DHT22;42435;53.292;6.000;2023-11-21T00:18:29;11.60;87.50
56538;DHT22;42435;53.292;6.000;2023-11-21T00:20:55;11.60;87.50
56538;DHT22;42435;53.292;6.000;2023-11-21T00:23:21;11.60;87.50
56538;DHT22;42435;53.292;6.000;2023-11-21T00:25:46;11.60;87.50
56538;DHT22;42435;53.292;6.000;2023-11-21T00:28:15;11.60;87.40
56538;DHT22;42435;53.292;6.000;2023-11-21T00:30:41;11.70;87.40
56538;DHT22;42435;53.292;6.000;2023-11-21T00:33:07;11.70;87.40
56538;DHT22;42435;53.292;6.000;2023-11-21T00:35:32;11.70;87.40
56538;DHT22;42435;53.292;6.000;2023-11-21T00:37:58;11.70;87.40
56538;DHT22;42435;53.292;6.000;2023-11-21T00:40:23;11.70;87.40
56538;DHT22;42435;53.292;6.000;2023-11-21T00:42:50;11.70;87.40
56538;DHT22;42435;53.292;6.000;2023-11-21T00:45:16;11.70;87.50
56538;DHT22;42435;53.292;6.000;2023-11-21T00:47:41;11.70;87.50
56538;DHT22;42435;53.292;6.000;2023-11-21T00:50:08;11.80;87.50
56538;DHT22;42435;53.292;6.000;2023-11-21T00:52:37;11.80;87.50
56538;DHT22;42435;53.292;6.000;2023-11-21T00:55:04;11.80;87.50
56538;DHT22;42435;53.292;6.000;2023-11-21T00:57:30;11.90;87.50
56538;DHT22;42435;53.292;6.000;2023-11-21T00:59:56;11.90;87.50
56538;DHT22;42435;53.292;6.000;2023-11-21T01:02:22;11.90;87.50
56538;DHT22;42435;53.292;6.000;2023-11-21T01:04:50;11.90;87.50
56538;DHT22;42435;53.292;6.000;2023-11-21T01:07:16;11.90;87.50
56538;DHT22;42435;53.292;6.000;2023-11-21T01:09:41;11.90;87.50
56538;DHT22;42435;53.292;6.000;2023-11-21T01:12:07;11.90;87.40
56538;DHT22;42435;53.292;6.000;2023-11-21T01:14:33;12.00;87.40
56538;DHT22;42435;53.292;6.000;2023-11-21T01:16:59;11.90;87.40
56538;DHT22;42435;53.292;6.000;2023-11-21T01:19:27;12.00;87.30
56538;DHT22;42435;53.292;6.000;2023-11-21T01:21:54;12.00;87.30
56538;DHT22;42435;53.292;6.000;2023-11-21T01:24:19;12.00;87.30
56538;DHT22;42435;53.292;6.000;2023-11-21T01:26:45;12.00;87.30
56538;DHT22;42435;53.292;6.000;2023-11-21T01:29:12;12.00;87.20
56538;DHT22;42435;53.292;6.000;2023-11-21T01:31:39;12.10;87.20
56538;DHT22;42435;53.292;6.000;2023-11-21T01:34:04;12.10;87.20
56538;DHT22;42435;53.292;6.000;2023-11-21T01:36:33;12.10;87.10
56538;DHT22;42435;53.292;6.000;2023-11-21T01:38:59;12.10;87.10
56538;DHT22;42435;53.292;6.000;2023-11-21T01:41:26;12.10;87.00
56538;DHT22;42435;53.292;6.000;2023-11-21T01:43:52;12.10;87.00
56538;DHT22;42435;53.292;6.000;2023-11-21T01:46:20;12.10;87.00
56538;DHT22;42435;53.292;6.000;2023-11-21T01:48:47;12.10;86.90
56538;DHT22;42435;53.292;6.000;2023-11-21T01:51:13;12.00;86.90
56538;DHT22;42435;53.292;6.000;2023-11-21T01:53:39;12.10;86.90
56538;DHT22;42435;53.292;6.000;2023-11-21T01:56:09;12.00;86.80
56538;DHT22;42435;53.292;6.000;2023-11-21T01:58:35;12.00;86.80
56538;DHT22;42435;53.292;6.000;2023-11-21T02:01:01;12.00;86.80
56538;DHT22;42435;53.292;6.000;2023-11-21T02:03:27;12.00;86.70
56538;DHT22;42435;53.292;6.000;2023-11-21T02:05:53;12.00;86.70
56538;DHT22;42435;53.292;6.000;2023-11-21T02:08:19;11.90;86.70
56538;DHT22;42435;53.292;6.000;2023-11-21T02:10:45;11.90;86.70
56538;DHT22;42435;53.292;6.000;2023-11-21T02:13:11;11.90;86.70
56538;DHT22;42435;53.292;6.000;2023-11-21T02:15:37;11.90;86.80
56538;DHT22;42435;53.292;6.000;2023-11-21T02:18:04;11.90;86.80
56538;DHT22;42435;53.292;6.000;2023-11-21T02:20:32;11.90;86.80
56538;DHT22;42435;53.292;6.000;2023-11-21T02:23:00;11.90;86.90
56538;DHT22;42435;53.292;6.000;2023-11-21T02:25:31;11.90;86.90
56538;DHT22;42435;53.292;6.000;2023-11-21T02:28:00;11.90;86.90
56538;DHT22;42435;53.292;6.000;2023-11-21T02:30:26;11.90;86.90
56538;DHT22;42435;53.292;6.000;2023-11-21T02:32:53;11.90;86.90
56538;DHT22;42435;53.292;6.000;2023-11-21T02:35:20;11.90;86.90
56538;DHT22;42435;53.292;6.000;2023-11-21T02:37:49;11.90;86.90
56538;DHT22;42435;53.292;6.000;2023-11-21T02:40:16;11.90;86.90
56538;DHT22;42435;53.292;6.000;2023-11-21T02:42:50;11.90;86.90
56538;DHT22;42435;53.292;6.000;2023-11-21T02:45:20;11.90;86.90
56538;DHT22;42435;53.292;6.000;2023-11-21T02:47:52;11.90;86.90
56538;DHT22;42435;53.292;6.000;2023-11-21T02:50:22;11.80;86.90
56538;DHT22;42435;53.292;6.000;2023-11-21T02:52:48;11.80;86.90
56538;DHT22;42435;53.292;6.000;2023-11-21T02:55:13;11.70;86.80
56538;DHT22;42435;53.292;6.000;2023-11-21T02:57:41;11.70;86.90
56538;DHT22;42435;53.292;6.000;2023-11-21T03:00:07;11.70;86.90
56538;DHT22;42435;53.292;6.000;2023-11-21T03:02:33;11.70;86.90
56538;DHT22;42435;53.292;6.000;2023-11-21T03:05:05;11.60;86.90
56538;DHT22;42435;53.292;6.000;2023-11-21T03:07:31;11.60;87.00
56538;DHT22;42435;53.292;6.000;2023-11-21T03:09:57;11.60;87.00
56538;DHT22;42435;53.292;6.000;2023-11-21T03:12:23;11.60;87.00
56538;DHT22;42435;53.292;6.000;2023-11-21T03:14:48;11.60;87.00
56538;DHT22;42435;53.292;6.000;2023-11-21T03:17:17;11.60;87.00
56538;DHT22;42435;53.292;6.000;2023-11-21T03:19:42;11.50;87.00
56538;DHT22;42435;53.292;6.000;2023-11-21T03:22:08;11.50;87.10
56538;DHT22;42435;53.292;6.000;2023-11-21T03:24:35;11.50;87.10
56538;DHT22;42435;53.292;6.000;2023-11-21T03:27:00;11.50;87.10
56538;DHT22;42435;53.292;6.000;2023-11-21T03:29:26;11.50;87.10
56538;DHT22;42435;53.292;6.000;2023-11-21T03:31:52;11.40;87.20
56538;DHT22;42435;53.292;6.000;2023-11-21T03:34:27;11.50;87.20
56538;DHT22;42435;53.292;6.000;2023-11-21T03:36:54;11.40;87.20
56538;DHT22;42435;53.292;6.000;2023-11-21T03:39:20;11.40;87.20
56538;DHT22;42435;53.292;6.000;2023-11-21T03:41:49;11.40;87.20
56538;DHT22;42435;53.292;6.000;2023-11-21T03:44:14;11.30;87.30
56538;DHT22;42435;53.292;6.000;2023-11-21T03:46:40;11.40;87.40
56538;DHT22;42435;53.292;6.000;2023-11-21T03:49:06;11.40;87.40
56538;DHT22;42435;53.292;6.000;2023-11-21T03:51:31;11.30;87.40
56538;DHT22;42435;53.292;6.000;2023-11-21T03:53:59;11.30;87.40
56538;DHT22;42435;53.292;6.000;2023-11-21T03:56:28;11.30;87.40
56538;DHT22;42435;53.292;6.000;2023-11-21T03:58:53;11.30;87.50
56538;DHT22;42435;53.292;6.000;2023-11-21T04:01:22;11.30;87.50
56538;DHT22;42435;53.292;6.000;2023-11-21T04:03:49;11.30;87.50
56538;DHT22;42435;53.292;6.000;2023-11-21T04:06:16;11.20;87.50
56538;DHT22;42435;53.292;6.000;2023-11-21T04:08:43;11.20;87.50
56538;DHT22;42435;53.292;6.000;2023-11-21T04:11:10;11.20;87.60
56538;DHT22;42435;53.292;6.000;2023-11-21T04:13:38;11.20;87.50
56538;DHT22;42435;53.292;6.000;2023-11-21T04:16:05;11.20;87.60
56538;DHT22;42435;53.292;6.000;2023-11-21T04:18:31;11.20;87.60
56538;DHT22;42435;53.292;6.000;2023-11-21T04:20:57;11.20;87.50
56538;DHT22;42435;53.292;6.000;2023-11-21T04:23:22;11.20;87.60
56538;DHT22;42435;53.292;6.000;2023-11-21T04:25:48;11.20;87.60
56538;DHT22;42435;53.292;6.000;2023-11-21T04:28:16;11.20;87.60
56538;DHT22;42435;53.292;6.000;2023-11-21T04:30:42;11.10;87.60
56538;DHT22;42435;53.292;6.000;2023-11-21T04:33:07;11.10;87.70
56538;DHT22;42435;53.292;6.000;2023-11-21T04:35:33;11.10;87.70
56538;DHT22;42435;53.292;6.000;2023-11-21T04:37:59;11.20;87.80
56538;DHT22;42435;53.292;6.000;2023-11-21T04:40:25;11.20;87.80
56538;DHT22;42435;53.292;6.000;2023-11-21T04:42:52;11.20;87.80
56538;DHT22;42435;53.292;6.000;2023-11-21T04:45:18;11.10;87.70
56538;DHT22;42435;53.292;6.000;2023-11-21T04:47:43;11.10;87.70
56538;DHT22;42435;53.292;6.000;2023-11-21T04:50:10;11.10;87.70
56538;DHT22;42435;53.292;6.000;2023-11-21T04:52:36;11.00;87.70
56538;DHT22;42435;53.292;6.000;2023-11-21T04:55:02;11.00;87.60
56538;DHT22;42435;53.292;6.000;2023-11-21T04:57:28;10.90;87.60
56538;DHT22;42435;53.292;6.000;2023-11-21T04:59:56;10.90;87.50
56538;DHT22;42435;53.292;6.000;2023-11-21T05:02:22;10.90;87.40
56538;DHT22;42435;53.292;6.000;2023-11-21T05:04:47;10.80;87.30
56538;DHT22;42435;53.292;6.000;2023-11-21T05:07:13;10.70;87.30
56538;DHT22;42435;53.292;6.000;2023-11-21T05:09:43;10.70;87.40
56538;DHT22;42435;53.292;6.000;2023-11-21T05:12:14;10.70;87.50
56538;DHT22;42435;53.292;6.000;2023-11-21T05:14:40;10.60;87.50
56538;DHT22;42435;53.292;6.000;2023-11-21T05:17:05;10.60;87.60
56538;DHT22;42435;53.292;6.000;2023-11-21T05:19:32;10.50;87.60
56538;DHT22;42435;53.292;6.000;2023-11-21T05:21:58;10.50;87.70
56538;DHT22;42435;53.292;6.000;2023-11-21T05:24:26;10.50;87.70
56538;DHT22;42435;53.292;6.000;2023-11-21T05:26:51;10.50;87.70
56538;DHT22;42435;53.292;6.000;2023-11-21T05:29:17;10.40;87.70
56538;DHT22;42435;53.292;6.000;2023-11-21T05:31:42;10.40;87.80
56538;DHT22;42435;53.292;6.000;2023-11-21T05:34:08;10.40;87.80
56538;DHT22;42435;53.292;6.000;2023-11-21T05:36:33;10.40;87.90
56538;DHT22;42435;53.292;6.000;2023-11-21T05:38:59;10.40;87.90
56538;DHT22;42435;53.292;6.000;2023-11-21T05:41:27;10.40;88.00
56538;DHT22;42435;53.292;6.000;2023-11-21T05:43:53;10.40;88.00
56538;DHT22;42435;53.292;6.000;2023-11-21T05:46:19;10.40;88.00
56538;DHT22;42435;53.292;6.000;2023-11-21T05:48:45;10.40;88.00
56538;DHT22;42435;53.292;6.000;2023-11-21T05:51:13;10.40;88.00
56538;DHT22;42435;53.292;6.000;2023-11-21T05:53:39;10.40;88.00
56538;DHT22;42435;53.292;6.000;2023-11-21T05:56:05;10.40;88.10
56538;DHT22;42435;53.292;6.000;2023-11-21T05:58:30;10.40;88.10
56538;DHT22;42435;53.292;6.000;2023-11-21T06:00:56;10.40;88.10
56538;DHT22;42435;53.292;6.000;2023-11-21T06:03:23;10.40;88.10
56538;DHT22;42435;53.292;6.000;2023-11-21T06:05:48;10.40;88.10
56538;DHT22;42435;53.292;6.000;2023-11-21T06:08:14;10.40;88.10
56538;DHT22;42435;53.292;6.000;2023-11-21T06:10:45;10.40;88.10
56538;DHT22;42435;53.292;6.000;2023-11-21T06:13:14;10.40;88.10
56538;DHT22;42435;53.292;6.000;2023-11-21T06:15:40;10.40;88.00
56538;DHT22;42435;53.292;6.000;2023-11-21T06:18:05;10.40;88.00
56538;DHT22;42435;53.292;6.000;2023-11-21T06:20:35;10.40;88.00
56538;DHT22;42435;53.292;6.000;2023-11-21T06:23:02;10.30;88.00
56538;DHT22;42435;53.292;6.000;2023-11-21T06:25:29;10.30;88.00
56538;DHT22;42435;53.292;6.000;2023-11-21T06:27:58;10.30;88.00
56538;DHT22;42435;53.292;6.000;2023-11-21T06:30:26;10.30;88.00
56538;DHT22;42435;53.292;6.000;2023-11-21T06:32:54;10.30;87.90
56538;DHT22;42435;53.292;6.000;2023-11-21T06:35:20;10.40;87.90
56538;DHT22;42435;53.292;6.000;2023-11-21T06:37:46;10.30;87.90
56538;DHT22;42435;53.292;6.000;2023-11-21T06:40:17;10.30;87.90
56538;DHT22;42435;53.292;6.000;2023-11-21T06:42:44;10.30;87.80
56538;DHT22;42435;53.292;6.000;2023-11-21T06:45:10;10.30;87.80
56538;DHT22;42435;53.292;6.000;2023-11-21T06:47:37;10.30;87.60
56538;DHT22;42435;53.292;6.000;2023-11-21T06:50:03;10.20;87.50
56538;DHT22;42435;53.292;6.000;2023-11-21T06:52:29;10.20;87.50
56538;DHT22;42435;53.292;6.000;2023-11-21T06:54:55;10.20;87.50
56538;DHT22;42435;53.292;6.000;2023-11-21T06:57:23;10.20;87.40
56538;DHT22;42435;53.292;6.000;2023-11-21T06:59:48;10.10;87.50
56538;DHT22;42435;53.292;6.000;2023-11-21T07:02:16;10.10;87.50
56538;DHT22;42435;53.292;6.000;2023-11-21T07:04:46;10.10;87.40
56538;DHT22;42435;53.292;6.000;2023-11-21T07:07:12;10.00;87.30
56538;DHT22;42435;53.292;6.000;2023-11-21T07:09:41;10.00;87.30
56538;DHT22;42435;53.292;6.000;2023-11-21T07:12:07;10.00;87.20
56538;DHT22;42435;53.292;6.000;2023-11-21T07:14:36;10.00;87.20
56538;DHT22;42435;53.292;6.000;2023-11-21T07:17:02;9.90;87.20
56538;DHT22;42435;53.292;6.000;2023-11-21T07:19:28;9.90;87.10
56538;DHT22;42435;53.292;6.000;2023-11-21T07:21:54;9.90;87.20
56538;DHT22;42435;53.292;6.000;2023-11-21T07:24:21;9.90;87.20
56538;DHT22;42435;53.292;6.000;2023-11-21T07:26:48;9.90;87.20
56538;DHT22;42435;53.292;6.000;2023-11-21T07:29:13;9.90;87.20
56538;DHT22;42435;53.292;6.000;2023-11-21T07:31:39;10.00;87.10
56538;DHT22;42435;53.292;6.000;2023-11-21T07:34:06;9.90;87.10
56538;DHT22;42435;53.292;6.000;2023-11-21T07:36:33;9.90;87.10
56538;DHT22;42435;53.292;6.000;2023-11-21T07:38:59;9.90;87.10
56538;DHT22;42435;53.292;6.000;2023-11-21T07:41:25;9.90;87.00
56538;DHT22;42435;53.292;6.000;2023-11-21T07:43:51;9.90;87.00
56538;DHT22;42435;53.292;6.000;2023-11-21T07:46:16;9.90;86.90
56538;DHT22;42435;53.292;6.000;2023-11-21T07:48:43;9.90;87.00
56538;DHT22;42435;53.292;6.000;2023-11-21T07:51:10;9.90;86.90
56538;DHT22;42435;53.292;6.000;2023-11-21T07:53:37;9.90;87.00
56538;DHT22;42435;53.292;6.000;2023-11-21T07:56:08;9.90;87.00
56538;DHT22;42435;53.292;6.000;2023-11-21T07:58:34;9.90;86.90
56538;DHT22;42435;53.292;6.000;2023-11-21T08:01:01;9.90;86.90
56538;DHT22;42435;53.292;6.000;2023-11-21T08:03:27;9.90;86.90
56538;DHT22;42435;53.292;6.000;2023-11-21T08:06:00;9.90;86.90
56538;DHT22;42435;53.292;6.000;2023-11-21T08:08:31;9.90;86.80
56538;DHT22;42435;53.292;6.000;2023-11-21T08:10:57;9.90;86.80
56538;DHT22;42435;53.292;6.000;2023-11-21T08:13:27;10.00;86.80
56538;DHT22;42435;53.292;6.000;2023-11-21T08:15:57;10.00;86.80
56538;DHT22;42435;53.292;6.000;2023-11-21T08:18:30;10.00;86.60
56538;DHT22;42435;53.292;6.000;2023-11-21T08:20:59;9.90;86.60
56538;DHT22;42435;53.292;6.000;2023-11-21T08:23:25;9.90;86.40
56538;DHT22;42435;53.292;6.000;2023-11-21T08:25:52;9.90;86.30
56538;DHT22;42435;53.292;6.000;2023-11-21T08:28:18;9.90;86.30
56538;DHT22;42435;53.292;6.000;2023-11-21T08:30:45;9.90;86.10
56538;DHT22;42435;53.292;6.000;2023-11-21T08:33:10;9.90;85.90
56538;DHT22;42435;53.292;6.000;2023-11-21T08:35:39;9.90;85.80
56538;DHT22;42435;53.292;6.000;2023-11-21T08:38:07;9.90;85.90
56538;DHT22;42435;53.292;6.000;2023-11-21T08:40:35;9.90;85.80
56538;DHT22;42435;53.292;6.000;2023-11-21T08:43:01;9.90;85.70
56538;DHT22;42435;53.292;6.000;2023-11-21T08:45:26;9.90;85.50
56538;DHT22;42435;53.292;6.000;2023-11-21T08:47:52;9.90;85.50
56538;DHT22;42435;53.292;6.000;2023-11-21T08:50:18;9.90;85.40
56538;DHT22;42435;53.292;6.000;2023-11-21T08:52:48;9.90;85.40
56538;DHT22;42435;53.292;6.000;2023-11-21T08:55:14;9.90;85.40
56538;DHT22;42435;53.292;6.000;2023-11-21T08:57:40;9.90;85.40
56538;DHT22;42435;53.292;6.000;2023-11-21T09:00:08;9.90;85.40
56538;DHT22;42435;53.292;6.000;2023-11-21T09:02:40;10.00;85.50
56538;DHT22;42435;53.292;6.000;2023-11-21T09:05:08;9.90;85.40
56538;DHT22;42435;53.292;6.000;2023-11-21T09:07:34;9.90;85.40
56538;DHT22;42435;53.292;6.000;2023-11-21T09:10:04;10.00;85.40
56538;DHT22;42435;53.292;6.000;2023-11-21T09:12:36;10.00;85.40
56538;DHT22;42435;53.292;6.000;2023-11-21T09:15:08;10.00;85.40
56538;DHT22;42435;53.292;6.000;2023-11-21T09:17:35;10.00;85.30
56538;DHT22;42435;53.292;6.000;2023-11-21T09:20:01;10.00;85.20
56538;DHT22;42435;53.292;6.000;2023-11-21T09:22:29;10.00;85.20
56538;DHT22;42435;53.292;6.000;2023-11-21T09:24:55;10.00;85.20
56538;DHT22;42435;53.292;6.000;2023-11-21T09:27:22;10.00;85.00
56538;DHT22;42435;53.292;6.000;2023-11-21T09:29:47;10.00;84.90
56538;DHT22;42435;53.292;6.000;2023-11-21T09:32:13;10.00;84.60
56538;DHT22;42435;53.292;6.000;2023-11-21T09:34:41;9.90;84.40
56538;DHT22;42435;53.292;6.000;2023-11-21T09:37:07;9.90;84.10
56538;DHT22;42435;53.292;6.000;2023-11-21T09:39:33;9.90;84.10
56538;DHT22;42435;53.292;6.000;2023-11-21T09:44:58;10.00;83.90
56538;DHT22;42435;53.292;6.000;2023-11-21T09:47:26;10.10;83.90
56538;DHT22;42435;53.292;6.000;2023-11-21T09:49:54;10.20;83.70
56538;DHT22;42435;53.292;6.000;2023-11-21T09:52:26;10.30;83.70
56538;DHT22;42435;53.292;6.000;2023-11-21T09:54:57;10.40;83.80
56538;DHT22;42435;53.292;6.000;2023-11-21T09:57:24;10.50;83.70
56538;DHT22;42435;53.292;6.000;2023-11-21T09:59:54;10.50;83.30
56538;DHT22;42435;53.292;6.000;2023-11-21T10:02:27;10.50;82.80
56538;DHT22;42435;53.292;6.000;2023-11-21T10:04:56;10.50;82.80
56538;DHT22;42435;53.292;6.000;2023-11-21T10:07:22;10.50;82.50
56538;DHT22;42435;53.292;6.000;2023-11-21T10:09:48;10.40;82.50
56538;DHT22;42435;53.292;6.000;2023-11-21T10:12:16;10.40;82.50
56538;DHT22;42435;53.292;6.000;2023-11-21T10:14:42;10.40;82.30
56538;DHT22;42435;53.292;6.000;2023-11-21T10:17:10;10.40;82.10
56538;DHT22;42435;53.292;6.000;2023-11-21T10:19:38;10.30;81.80
56538;DHT22;42435;53.292;6.000;2023-11-21T10:22:05;10.20;81.70
56538;DHT22;42435;53.292;6.000;2023-11-21T10:24:33;10.20;81.60
56538;DHT22;42435;53.292;6.000;2023-11-21T10:26:58;10.10;81.70
56538;DHT22;42435;53.292;6.000;2023-11-21T10:29:28;10.10;81.90
56538;DHT22;42435;53.292;6.000;2023-11-21T10:31:54;10.00;81.60
56538;DHT22;42435;53.292;6.000;2023-11-21T10:34:23;10.00;81.30
56538;DHT22;42435;53.292;6.000;2023-11-21T10:36:48;9.90;81.50
56538;DHT22;42435;53.292;6.000;2023-11-21T10:39:19;9.90;81.60
56538;DHT22;42435;53.292;6.000;2023-11-21T10:41:46;9.90;81.70
56538;DHT22;42435;53.292;6.000;2023-11-21T10:44:16;9.80;81.90
56538;DHT22;42435;53.292;6.000;2023-11-21T10:46:51;9.80;81.90
56538;DHT22;42435;53.292;6.000;2023-11-21T10:49:22;9.80;81.80
56538;DHT22;42435;53.292;6.000;2023-11-21T10:51:53;9.70;81.60
56538;DHT22;42435;53.292;6.000;2023-11-21T10:54:20;9.70;81.70
56538;DHT22;42435;53.292;6.000;2023-11-21T10:56:48;9.70;81.60
56538;DHT22;42435;53.292;6.000;2023-11-21T10:59:16;9.70;81.80
56538;DHT22;42435;53.292;6.000;2023-11-21T11:01:44;9.70;81.90
56538;DHT22;42435;53.292;6.000;2023-11-21T11:04:12;9.70;82.00
56538;DHT22;42435;53.292;6.000;2023-11-21T11:06:43;9.80;82.00
56538;DHT22;42435;53.292;6.000;2023-11-21T11:09:14;9.90;82.20
56538;DHT22;42435;53.292;6.000;2023-11-21T11:11:40;10.10;82.40
56538;DHT22;42435;53.292;6.000;2023-11-21T11:14:10;10.30;82.30
56538;DHT22;42435;53.292;6.000;2023-11-21T11:16:39;10.40;82.00
56538;DHT22;42435;53.292;6.000;2023-11-21T11:19:10;10.70;81.90
56538;DHT22;42435;53.292;6.000;2023-11-21T11:21:49;10.90;81.80
56538;DHT22;42435;53.292;6.000;2023-11-21T11:27:34;11.30;80.40
56538;DHT22;42435;53.292;6.000;2023-11-21T11:30:27;11.40;78.70
56538;DHT22;42435;53.292;6.000;2023-11-21T11:38:49;11.20;77.80
56538;DHT22;42435;53.292;6.000;2023-11-21T11:41:30;11.40;78.20
56538;DHT22;42435;53.292;6.000;2023-11-21T11:44:02;11.40;77.50
56538;DHT22;42435;53.292;6.000;2023-11-21T11:46:44;11.50;77.40
56538;DHT22;42435;53.292;6.000;2023-11-21T11:49:28;11.50;76.60
56538;DHT22;42435;53.292;6.000;2023-11-21T11:54:59;11.40;75.20
56538;DHT22;42435;53.292;6.000;2023-11-21T11:57:25;11.30;75.30
56538;DHT22;42435;53.292;6.000;2023-11-21T12:00:17;11.30;75.00
56538;DHT22;42435;53.292;6.000;2023-11-21T12:02:47;11.30;74.90
56538;DHT22;42435;53.292;6.000;2023-11-21T12:05:23;11.30;74.90
56538;DHT22;42435;53.292;6.000;2023-11-21T12:07:56;11.30;75.10
56538;DHT22;42435;53.292;6.000;2023-11-21T12:10:27;11.30;74.80
56538;DHT22;42435;53.292;6.000;2023-11-21T12:12:55;11.40;74.20
56538;DHT22;42435;53.292;6.000;2023-11-21T12:15:22;11.40;73.90
56538;DHT22;42435;53.292;6.000;2023-11-21T12:17:49;11.40;74.10
56538;DHT22;42435;53.292;6.000;2023-11-21T12:20:19;11.40;74.30
56538;DHT22;42435;53.292;6.000;2023-11-21T12:22:54;11.30;73.90
56538;DHT22;42435;53.292;6.000;2023-11-21T12:25:27;11.20;73.50
56538;DHT22;42435;53.292;6.000;2023-11-21T12:27:58;11.20;73.70
56538;DHT22;42435;53.292;6.000;2023-11-21T12:30:29;11.10;74.10
56538;DHT22;42435;53.292;6.000;2023-11-21T12:32:58;11.00;74.30
56538;DHT22;42435;53.292;6.000;2023-11-21T12:35:31;11.00;74.50
56538;DHT22;42435;53.292;6.000;2023-11-21T12:37:59;11.00;74.30
56538;DHT22;42435;53.292;6.000;2023-11-21T12:40:26;11.00;74.30
56538;DHT22;42435;53.292;6.000;2023-11-21T12:42:54;10.90;74.10
56538;DHT22;42435;53.292;6.000;2023-11-21T12:45:27;10.90;74.20
56538;DHT22;42435;53.292;6.000;2023-11-21T12:48:03;10.80;74.60
56538;DHT22;42435;53.292;6.000;2023-11-21T12:50:33;10.80;74.50
56538;DHT22;42435;53.292;6.000;2023-11-21T12:53:03;10.80;74.80
56538;DHT22;42435;53.292;6.000;2023-11-21T12:55:33;10.70;74.70
56538;DHT22;42435;53.292;6.000;2023-11-21T12:58:03;10.60;74.70
56538;DHT22;42435;53.292;6.000;2023-11-21T13:00:36;10.60;75.00
56538;DHT22;42435;53.292;6.000;2023-11-21T13:03:04;10.70;75.60
56538;DHT22;42435;53.292;6.000;2023-11-21T13:05:34;10.70;76.00
56538;DHT22;42435;53.292;6.000;2023-11-21T13:08:03;10.80;76.00
56538;DHT22;42435;53.292;6.000;2023-11-21T13:10:32;10.90;76.00
56538;DHT22;42435;53.292;6.000;2023-11-21T13:13:02;10.90;76.10
56538;DHT22;42435;53.292;6.000;2023-11-21T13:15:31;10.90;75.60
56538;DHT22;42435;53.292;6.000;2023-11-21T13:17:59;10.90;75.30
56538;DHT22;42435;53.292;6.000;2023-11-21T13:20:27;10.80;75.10
56538;DHT22;42435;53.292;6.000;2023-11-21T13:22:56;10.70;75.10
56538;DHT22;42435;53.292;6.000;2023-11-21T13:25:27;10.60;75.30
56538;DHT22;42435;53.292;6.000;2023-11-21T13:27:56;10.60;75.30
56538;DHT22;42435;53.292;6.000;2023-11-21T13:30:23;10.50;75.50
56538;DHT22;42435;53.292;6.000;2023-11-21T13:32:52;10.40;75.70
56538;DHT22;42435;53.292;6.000;2023-11-21T13:35:18;10.40;75.90
56538;DHT22;42435;53.292;6.000;2023-11-21T13:37:50;10.30;76.00
56538;DHT22;42435;53.292;6.000;2023-11-21T13:40:21;10.30;76.10
56538;DHT22;42435;53.292;6.000;2023-11-21T13:42:54;10.20;76.20
56538;DHT22;42435;53.292;6.000;2023-11-21T13:45:22;10.20;76.20
56538;DHT22;42435;53.292;6.000;2023-11-21T13:47:52;10.00;76.20
56538;DHT22;42435;53.292;6.000;2023-11-21T13:50:22;10.00;76.10
56538;DHT22;42435;53.292;6.000;2023-11-21T13:52:58;10.00;76.40
56538;DHT22;42435;53.292;6.000;2023-11-21T13:55:29;10.00;76.70
56538;DHT22;42435;53.292;6.000;2023-11-21T13:57:55;9.90;76.90
56538;DHT22;42435;53.292;6.000;2023-11-21T14:00:20;9.90;77.10
56538;DHT22;42435;53.292;6.000;2023-11-21T14:03:09;9.90;77.20
56538;DHT22;42435;53.292;6.000;2023-11-21T14:05:45;9.70;77.50
56538;DHT22;42435;53.292;6.000;2023-11-21T14:08:19;9.70;78.00
56538;DHT22;42435;53.292;6.000;2023-11-21T14:10:49;9.60;78.40
56538;DHT22;42435;53.292;6.000;2023-11-21T14:13:23;9.50;78.80
56538;DHT22;42435;53.292;6.000;2023-11-21T14:15:52;9.40;79.10
56538;DHT22;42435;53.292;6.000;2023-11-21T14:18:28;9.30;79.20
56538;DHT22;42435;53.292;6.000;2023-11-21T14:21:01;9.20;79.50
56538;DHT22;42435;53.292;6.000;2023-11-21T14:23:27;9.20;79.80
56538;DHT22;42435;53.292;6.000;2023-11-21T14:25:54;9.20;80.00
56538;DHT22;42435;53.292;6.000;2023-11-21T14:28:23;9.20;80.10
56538;DHT22;42435;53.292;6.000;2023-11-21T14:30:48;9.20;80.20
56538;DHT22;42435;53.292;6.000;2023-11-21T14:33:15;9.20;80.30
56538;DHT22;42435;53.292;6.000;2023-11-21T14:35:42;9.20;80.40
56538;DHT22;42435;53.292;6.000;2023-11-21T14:38:08;9.20;80.40
56538;DHT22;42435;53.292;6.000;2023-11-21T14:40:35;9.20;80.40
56538;DHT22;42435;53.292;6.000;2023-11-21T14:43:02;9.20;80.30
56538;DHT22;42435;53.292;6.000;2023-11-21T14:45:34;9.20;80.40
56538;DHT22;42435;53.292;6.000;2023-11-21T14:48:00;9.20;80.30
56538;DHT22;42435;53.292;6.000;2023-11-21T14:50:34;9.20;80.30
56538;DHT22;42435;53.292;6.000;2023-11-21T14:53:18;9.20;80.30
56538;DHT22;42435;53.292;6.000;2023-11-21T14:56:07;9.10;80.40
56538;DHT22;42435;53.292;6.000;2023-11-21T14:58:34;9.10;80.50
56538;DHT22;42435;53.292;6.000;2023-11-21T15:01:02;9.10;80.60
56538;DHT22;42435;53.292;6.000;2023-11-21T15:03:29;9.10;80.50
56538;DHT22;42435;53.292;6.000;2023-11-21T15:06:04;9.00;80.30
56538;DHT22;42435;53.292;6.000;2023-11-21T15:08:51;9.00;80.30
56538;DHT22;42435;53.292;6.000;2023-11-21T15:11:32;8.90;80.30
56538;DHT22;42435;53.292;6.000;2023-11-21T15:13:58;9.00;80.30
56538;DHT22;42435;53.292;6.000;2023-11-21T15:16:27;8.90;80.40
56538;DHT22;42435;53.292;6.000;2023-11-21T15:18:53;8.90;80.50
56538;DHT22;42435;53.292;6.000;2023-11-21T15:21:19;8.90;80.50
56538;DHT22;42435;53.292;6.000;2023-11-21T15:23:47;8.90;80.50
56538;DHT22;42435;53.292;6.000;2023-11-21T15:26:14;8.80;80.60
56538;DHT22;42435;53.292;6.000;2023-11-21T15:28:39;8.70;80.70
56538;DHT22;42435;53.292;6.000;2023-11-21T15:31:06;8.70;80.80
56538;DHT22;42435;53.292;6.000;2023-11-21T15:33:33;8.70;81.00
56538;DHT22;42435;53.292;6.000;2023-11-21T15:36:01;8.70;81.10
56538;DHT22;42435;53.292;6.000;2023-11-21T15:38:28;8.60;81.20
56538;DHT22;42435;53.292;6.000;2023-11-21T15:40:54;8.60;81.20
56538;DHT22;42435;53.292;6.000;2023-11-21T15:43:20;8.50;81.20
56538;DHT22;42435;53.292;6.000;2023-11-21T15:45:48;8.50;81.20
56538;DHT22;42435;53.292;6.000;2023-11-21T15:48:14;8.40;81.20
56538;DHT22;42435;53.292;6.000;2023-11-21T15:50:42;8.40;81.30
56538;DHT22;42435;53.292;6.000;2023-11-21T15:53:08;8.30;81.30
56538;DHT22;42435;53.292;6.000;2023-11-21T15:55:34;8.30;81.40